sensor_id;sensor_type;location;lat;lon;timestamp;temperature;humidity
19037;DHT22;9651;49.138;8.900;2023-08-12T00:02:38;20.20;99.90
19037;DHT22;9651;49.138;8.900;2023-08-12T00:06:40;20.20;99.90
19037;DHT22;9651;49.138;8.900;2023-08-12T00:10:41;20.20;99.90
19037;DHT22;9651;49.138;8.900;2023-08-12T00:14:44;20.20;99.90
19037;DHT22;9651;49.138;8.900;2023-08-12T00:18:47;20.20;99.90
19037;DHT22;9651;49.138;8.900;2023-08-12T00:22:49;20.20;99.90
19037;DHT22;9651;49.138;8.900;2023-08-12T00:26:50;20.10;99.90
19037;DHT22;9651;49.138;8.900;2023-08-12T00:30:52;20.00;99.90
19037;DHT22;9651;49.138;8.900;2023-08-12T00:34:56;19.90;99.90
19037;DHT22;9651;49.138;8.900;2023-08-12T00:38:58;19.90;99.90
19037;DHT22;9651;49.138;8.900;2023-08-12T00:42:59;19.90;99.90
19037;DHT22;9651;49.138;8.900;2023-08-12T00:47:01;19.90;99.90
19037;DHT22;9651;49.138;8.900;2023-08-12T00:51:05;19.70;99.90
19037;DHT22;9651;49.138;8.900;2023-08-12T00:55:09;19.70;99.90
19037;DHT22;9651;49.138;8.900;2023-08-12T00:59:14;19.70;99.90
19037;DHT22;9651;49.138;8.900;2023-08-12T01:03:19;19.70;99.90
19037;DHT22;9651;49.138;8.900;2023-08-12T01:07:23;19.70;99.90
19037;DHT22;9651;49.138;8.900;2023-08-12T01:11:29;19.80;99.90
19037;DHT22;9651;49.138;8.900;2023-08-12T01:15:34;19.80;99.90
19037;DHT22;9651;49.138;8.900;2023-08-12T01:19:38;19.90;99.90
19037;DHT22;9651;49.138;8.900;2023-08-12T01:23:41;19.90;99.90
19037;DHT22;9651;49.138;8.900;2023-08-12T01:27:43;19.90;99.90
19037;DHT22;9651;49.138;8.900;2023-08-12T01:31:50;20.00;99.90
19037;DHT22;9651;49.138;8.900;2023-08-12T01:35:56;20.00;99.90
19037;DHT22;9651;49.138;8.900;2023-08-12T01:40:04;20.00;99.90
19037;DHT22;9651;49.138;8.900;2023-08-12T01:44:07;20.00;99.90
19037;DHT22;9651;49.138;8.900;2023-08-12T01:48:09;20.10;99.90
19037;DHT22;9651;49.138;8.900;2023-08-12T01:52:11;20.10;99.90
19037;DHT22;9651;49.138;8.900;2023-08-12T01:56:14;20.10;99.90
19037;DHT22;9651;49.138;8.900;2023-08-12T02:00:16;20.10;99.90
19037;DHT22;9651;49.138;8.900;2023-08-12T02:04:18;20.10;99.90
19037;DHT22;9651;49.138;8.900;2023-08-12T02:08:20;20.10;99.90
19037;DHT22;9651;49.138;8.900;2023-08-12T02:12:23;20.10;99.90
19037;DHT22;9651;49.138;8.900;2023-08-12T02:16:25;20.10;99.90
19037;DHT22;9651;49.138;8.900;2023-08-12T02:20:27;20.10;99.90
19037;DHT22;9651;49.138;8.900;2023-08-12T02:24:29;20.10;99.90
19037;DHT22;9651;49.138;8.900;2023-08-12T02:28:34;20.10;99.90
19037;DHT22;9651;49.138;8.900;2023-08-12T02:32:36;20.20;99.90
19037;DHT22;9651;49.138;8.900;2023-08-12T02:36:38;20.20;99.90
19037;DHT22;9651;49.138;8.900;2023-08-12T02:40:40;20.20;99.90
19037;DHT22;9651;49.138;8.900;2023-08-12T02:44:43;20.30;99.90
19037;DHT22;9651;49.138;8.900;2023-08-12T02:48:45;20.30;99.90
19037;DHT22;9651;49.138;8.900;2023-08-12T02:52:48;20.30;99.90
19037;DHT22;9651;49.138;8.900;2023-08-12T02:56:50;20.20;99.90
19037;DHT22;9651;49.138;8.900;2023-08-12T03:00:55;20.30;99.90
19037;DHT22;9651;49.138;8.900;2023-08-12T03:04:57;20.20;99.90
19037;DHT22;9651;49.138;8.900;2023-08-12T03:08:59;20.20;99.90
19037;DHT22;9651;49.138;8.900;2023-08-12T03:13:01;20.20;99.90
19037;DHT22;9651;49.138;8.900;2023-08-12T03:17:05;20.10;99.90
19037;DHT22;9651;49.138;8.900;2023-08-12T03:21:10;19.90;99.90
19037;DHT22;9651;49.138;8.900;2023-08-12T03:25:13;19.90;99.90
19037;DHT22;9651;49.138;8.900;2023-08-12T03:29:18;19.80;99.90
19037;DHT22;9651;49.138;8.900;2023-08-12T03:33:23;19.80;99.90
19037;DHT22;9651;49.138;8.900;2023-08-12T03:37:27;19.80;99.90
19037;DHT22;9651;49.138;8.900;2023-08-12T03:41:30;19.80;99.90
19037;DHT22;9651;49.138;8.900;2023-08-12T03:45:39;19.80;99.90
19037;DHT22;9651;49.138;8.900;2023-08-12T03:49:42;19.80;99.90
19037;DHT22;9651;49.138;8.900;2023-08-12T03:53:45;19.90;99.90
19037;DHT22;9651;49.138;8.900;2023-08-12T03:57:46;19.90;99.90
19037;DHT22;9651;49.138;8.900;2023-08-12T04:01:48;19.90;99.90
19037;DHT22;9651;49.138;8.900;2023-08-12T04:05:52;19.90;99.90
19037;DHT22;9651;49.138;8.900;2023-08-12T04:09:55;19.90;99.90
19037;DHT22;9651;49.138;8.900;2023-08-12T04:13:57;19.90;99.90
19037;DHT22;9651;49.138;8.900;2023-08-12T04:17:59;20.00;99.90
19037;DHT22;9651;49.138;8.900;2023-08-12T04:22:03;20.00;99.90
19037;DHT22;9651;49.138;8.900;2023-08-12T04:26:05;20.10;99.90
19037;DHT22;9651;49.138;8.900;2023-08-12T04:30:08;20.10;99.90
19037;DHT22;9651;49.138;8.900;2023-08-12T04:34:11;20.10;99.90
19037;DHT22;9651;49.138;8.900;2023-08-12T04:38:15;20.10;99.90
19037;DHT22;9651;49.138;8.900;2023-08-12T04:42:17;20.10;99.90
19037;DHT22;9651;49.138;8.900;2023-08-12T04:46:20;20.20;99.90
19037;DHT22;9651;49.138;8.900;2023-08-12T04:50:22;20.20;99.90
19037;DHT22;9651;49.138;8.900;2023-08-12T04:54:25;20.20;99.90
19037;DHT22;9651;49.138;8.900;2023-08-12T04:58:28;20.20;99.90
19037;DHT22;9651;49.138;8.900;2023-08-12T05:02:31;20.20;99.90
19037;DHT22;9651;49.138;8.900;2023-08-12T05:06:32;20.30;99.90
19037;DHT22;9651;49.138;8.900;2023-08-12T05:10:36;20.30;99.90
19037;DHT22;9651;49.138;8.900;2023-08-12T05:14:39;20.30;99.90
19037;DHT22;9651;49.138;8.900;2023-08-12T05:18:42;20.40;99.90
19037;DHT22;9651;49.138;8.900;2023-08-12T05:22:45;20.40;99.90
19037;DHT22;9651;49.138;8.900;2023-08-12T05:26:49;20.50;99.90
19037;DHT22;9651;49.138;8.900;2023-08-12T05:30:50;20.50;99.90
19037;DHT22;9651;49.138;8.900;2023-08-12T05:34:55;20.60;99.90
19037;DHT22;9651;49.138;8.900;2023-08-12T05:38:58;20.70;99.90
19037;DHT22;9651;49.138;8.900;2023-08-12T05:43:02;20.80;99.90
19037;DHT22;9651;49.138;8.900;2023-08-12T05:47:04;20.80;99.90
19037;DHT22;9651;49.138;8.900;2023-08-12T05:51:06;21.00;99.90
19037;DHT22;9651;49.138;8.900;2023-08-12T05:55:08;21.30;99.90
19037;DHT22;9651;49.138;8.900;2023-08-12T05:59:11;21.30;99.90
19037;DHT22;9651;49.138;8.900;2023-08-12T06:03:13;21.20;99.90
19037;DHT22;9651;49.138;8.900;2023-08-12T06:07:15;21.40;99.90
19037;DHT22;9651;49.138;8.900;2023-08-12T06:11:16;21.50;99.90
19037;DHT22;9651;49.138;8.900;2023-08-12T06:15:20;21.70;99.90
19037;DHT22;9651;49.138;8.900;2023-08-12T06:19:22;22.00;99.90
19037;DHT22;9651;49.138;8.900;2023-08-12T06:23:23;22.40;99.90
19037;DHT22;9651;49.138;8.900;2023-08-12T06:27:26;23.20;99.90
19037;DHT22;9651;49.138;8.900;2023-08-12T06:31:29;23.90;99.90
19037;DHT22;9651;49.138;8.900;2023-08-12T06:35:31;24.10;99.90
19037;DHT22;9651;49.138;8.900;2023-08-12T06:39:33;23.90;99.90
19037;DHT22;9651;49.138;8.900;2023-08-12T06:43:34;24.50;99.90
19037;DHT22;9651;49.138;8.900;2023-08-12T06:47:38;25.30;99.90
19037;DHT22;9651;49.138;8.900;2023-08-12T06:51:40;25.70;99.90
19037;DHT22;9651;49.138;8.900;2023-08-12T06:55:44;25.90;99.90
19037;DHT22;9651;49.138;8.900;2023-08-12T06:59:46;25.90;99.90
19037;DHT22;9651;49.138;8.900;2023-08-12T07:03:49;25.90;99.90
19037;DHT22;9651;49.138;8.900;2023-08-12T07:07:51;26.00;99.90
19037;DHT22;9651;49.138;8.900;2023-08-12T07:11:53;26.40;99.90
19037;DHT22;9651;49.138;8.900;2023-08-12T07:15:55;26.60;99.90
19037;DHT22;9651;49.138;8.900;2023-08-12T07:19:58;26.70;99.90
19037;DHT22;9651;49.138;8.900;2023-08-12T07:24:00;26.70;99.90
19037;DHT22;9651;49.138;8.900;2023-08-12T07:28:01;26.70;99.90
19037;DHT22;9651;49.138;8.900;2023-08-12T07:32:04;26.70;99.90
19037;DHT22;9651;49.138;8.900;2023-08-12T07:36:07;26.30;99.90
19037;DHT22;9651;49.138;8.900;2023-08-12T07:40:10;26.20;99.90
19037;DHT22;9651;49.138;8.900;2023-08-12T07:44:13;26.30;99.90
19037;DHT22;9651;49.138;8.900;2023-08-12T07:48:14;26.60;99.90
19037;DHT22;9651;49.138;8.900;2023-08-12T07:52:18;27.20;99.90
19037;DHT22;9651;49.138;8.900;2023-08-12T07:56:19;27.10;99.90
19037;DHT22;9651;49.138;8.900;2023-08-12T08:00:21;26.90;99.90
19037;DHT22;9651;49.138;8.900;2023-08-12T08:04:23;27.00;99.90
19037;DHT22;9651;49.138;8.900;2023-08-12T08:08:26;27.70;99.90
19037;DHT22;9651;49.138;8.900;2023-08-12T08:12:28;28.40;99.90
19037;DHT22;9651;49.138;8.900;2023-08-12T08:16:30;28.90;99.90
19037;DHT22;9651;49.138;8.900;2023-08-12T08:20:32;28.80;99.90
19037;DHT22;9651;49.138;8.900;2023-08-12T08:24:35;28.40;99.90
19037;DHT22;9651;49.138;8.900;2023-08-12T08:28:37;27.70;99.90
19037;DHT22;9651;49.138;8.900;2023-08-12T08:32:39;26.80;99.90
19037;DHT22;9651;49.138;8.900;2023-08-12T08:36:41;26.20;99.90
19037;DHT22;9651;49.138;8.900;2023-08-12T08:40:44;26.40;99.90
19037;DHT22;9651;49.138;8.900;2023-08-12T08:44:52;27.70;99.90
19037;DHT22;9651;49.138;8.900;2023-08-12T08:48:54;29.40;99.90
19037;DHT22;9651;49.138;8.900;2023-08-12T08:52:57;30.40;99.90
19037;DHT22;9651;49.138;8.900;2023-08-12T08:57:00;31.10;99.90
19037;DHT22;9651;49.138;8.900;2023-08-12T09:01:05;31.90;99.90
19037;DHT22;9651;49.138;8.900;2023-08-12T09:05:08;32.20;99.90
19037;DHT22;9651;49.138;8.900;2023-08-12T09:09:13;32.80;99.90
19037;DHT22;9651;49.138;8.900;2023-08-12T09:13:17;32.70;99.90
19037;DHT22;9651;49.138;8.900;2023-08-12T09:17:19;33.00;99.90
19037;DHT22;9651;49.138;8.900;2023-08-12T09:21:21;33.60;99.90
19037;DHT22;9651;49.138;8.900;2023-08-12T09:25:24;34.60;99.90
19037;DHT22;9651;49.138;8.900;2023-08-12T09:29:31;35.80;99.90
19037;DHT22;9651;49.138;8.900;2023-08-12T09:33:33;37.00;99.90
19037;DHT22;9651;49.138;8.900;2023-08-12T09:37:39;37.80;99.60
19037;DHT22;9651;49.138;8.900;2023-08-12T09:41:43;37.30;98.70
19037;DHT22;9651;49.138;8.900;2023-08-12T09:45:46;36.60;99.10
19037;DHT22;9651;49.138;8.900;2023-08-12T09:49:48;37.00;98.20
19037;DHT22;9651;49.138;8.900;2023-08-12T09:53:51;36.20;97.90
19037;DHT22;9651;49.138;8.900;2023-08-12T09:57:54;35.80;98.30
19037;DHT22;9651;49.138;8.900;2023-08-12T10:01:59;35.70;99.10
19037;DHT22;9651;49.138;8.900;2023-08-12T10:06:05;35.70;98.50
19037;DHT22;9651;49.138;8.900;2023-08-12T10:10:09;35.50;98.40
19037;DHT22;9651;49.138;8.900;2023-08-12T10:14:12;35.90;98.40
19037;DHT22;9651;49.138;8.900;2023-08-12T10:18:18;36.90;97.30
19037;DHT22;9651;49.138;8.900;2023-08-12T10:22:20;37.40;95.60
19037;DHT22;9651;49.138;8.900;2023-08-12T10:26:23;38.80;96.00
19037;DHT22;9651;49.138;8.900;2023-08-12T10:30:28;39.20;93.60
19037;DHT22;9651;49.138;8.900;2023-08-12T10:34:31;40.30;93.00
19037;DHT22;9651;49.138;8.900;2023-08-12T10:38:34;41.50;90.50
19037;DHT22;9651;49.138;8.900;2023-08-12T10:42:43;42.40;86.60
19037;DHT22;9651;49.138;8.900;2023-08-12T10:46:50;42.70;83.40
19037;DHT22;9651;49.138;8.900;2023-08-12T10:50:55;42.90;78.30
19037;DHT22;9651;49.138;8.900;2023-08-12T10:55:16;42.10;79.20
19037;DHT22;9651;49.138;8.900;2023-08-12T10:59:50;41.10;77.80
19037;DHT22;9651;49.138;8.900;2023-08-12T11:03:52;41.20;80.20
19037;DHT22;9651;49.138;8.900;2023-08-12T11:07:58;41.70;78.80
19037;DHT22;9651;49.138;8.900;2023-08-12T11:12:02;41.50;78.20
19037;DHT22;9651;49.138;8.900;2023-08-12T11:16:09;41.10;78.30
19037;DHT22;9651;49.138;8.900;2023-08-12T11:20:12;40.80;79.10
19037;DHT22;9651;49.138;8.900;2023-08-12T11:24:16;39.90;80.30
19037;DHT22;9651;49.138;8.900;2023-08-12T11:28:19;39.40;80.70
19037;DHT22;9651;49.138;8.900;2023-08-12T11:32:21;38.20;82.70
19037;DHT22;9651;49.138;8.900;2023-08-12T11:36:22;37.00;85.20
19037;DHT22;9651;49.138;8.900;2023-08-12T11:40:27;35.80;88.60
19037;DHT22;9651;49.138;8.900;2023-08-12T11:44:29;35.10;91.60
19037;DHT22;9651;49.138;8.900;2023-08-12T11:48:32;34.50;93.70
19037;DHT22;9651;49.138;8.900;2023-08-12T11:52:34;33.70;95.50
19037;DHT22;9651;49.138;8.900;2023-08-12T11:56:38;33.10;97.00
19037;DHT22;9651;49.138;8.900;2023-08-12T12:00:40;32.30;99.10
19037;DHT22;9651;49.138;8.900;2023-08-12T12:04:42;31.50;99.90
19037;DHT22;9651;49.138;8.900;2023-08-12T12:08:44;31.30;99.90
19037;DHT22;9651;49.138;8.900;2023-08-12T12:12:48;31.70;99.90
19037;DHT22;9651;49.138;8.900;2023-08-12T12:16:50;33.30;99.90
19037;DHT22;9651;49.138;8.900;2023-08-12T12:20:56;33.40;99.90
19037;DHT22;9651;49.138;8.900;2023-08-12T12:24:59;32.50;99.90
19037;DHT22;9651;49.138;8.900;2023-08-12T12:29:03;32.20;99.90
19037;DHT22;9651;49.138;8.900;2023-08-12T12:33:05;31.90;99.90
19037;DHT22;9651;49.138;8.900;2023-08-12T12:37:07;31.70;99.90
19037;DHT22;9651;49.138;8.900;2023-08-12T12:41:09;31.90;99.90
19037;DHT22;9651;49.138;8.900;2023-08-12T12:45:12;32.60;99.90
19037;DHT22;9651;49.138;8.900;2023-08-12T12:49:14;33.10;99.90
19037;DHT22;9651;49.138;8.900;2023-08-12T12:53:15;33.60;99.90
19037;DHT22;9651;49.138;8.900;2023-08-12T12:57:17;34.20;99.90
19037;DHT22;9651;49.138;8.900;2023-08-12T13:01:20;35.60;99.90
19037;DHT22;9651;49.138;8.900;2023-08-12T13:05:22;35.50;99.90
19037;DHT22;9651;49.138;8.900;2023-08-12T13:09:24;34.70;99.90
19037;DHT22;9651;49.138;8.900;2023-08-12T13:13:26;34.30;99.90
19037;DHT22;9651;49.138;8.900;2023-08-12T13:17:29;33.80;99.90
19037;DHT22;9651;49.138;8.900;2023-08-12T13:21:31;33.00;99.90
19037;DHT22;9651;49.138;8.900;2023-08-12T13:25:34;32.10;99.90
19037;DHT22;9651;49.138;8.900;2023-08-12T13:29:36;31.40;99.90
19037;DHT22;9651;49.138;8.900;2023-08-12T13:33:39;31.00;99.90
19037;DHT22;9651;49.138;8.900;2023-08-12T13:37:41;30.70;99.90
19037;DHT22;9651;49.138;8.900;2023-08-12T13:41:43;30.60;99.90
19037;DHT22;9651;49.138;8.900;2023-08-12T13:45:45;30.80;99.90
19037;DHT22;9651;49.138;8.900;2023-08-12T13:49:48;31.30;99.90
19037;DHT22;9651;49.138;8.900;2023-08-12T13:53:50;32.00;99.90
19037;DHT22;9651;49.138;8.900;2023-08-12T13:57:52;32.80;99.90
19037;DHT22;9651;49.138;8.900;2023-08-12T14:01:54;33.00;99.90
19037;DHT22;9651;49.138;8.900;2023-08-12T14:05:57;32.70;99.90
19037;DHT22;9651;49.138;8.900;2023-08-12T14:09:59;32.40;99.90
19037;DHT22;9651;49.138;8.900;2023-08-12T14:14:01;31.90;99.90
19037;DHT22;9651;49.138;8.900;2023-08-12T14:18:04;32.00;99.90
19037;DHT22;9651;49.138;8.900;2023-08-12T14:22:07;32.60;99.90
19037;DHT22;9651;49.138;8.900;2023-08-12T14:26:09;33.60;99.90
19037;DHT22;9651;49.138;8.900;2023-08-12T14:30:12;34.40;99.90
19037;DHT22;9651;49.138;8.900;2023-08-12T14:34:14;34.60;99.90
19037;DHT22;9651;49.138;8.900;2023-08-12T14:38:17;33.10;99.90
19037;DHT22;9651;49.138;8.900;2023-08-12T14:42:20;32.50;99.90
19037;DHT22;9651;49.138;8.900;2023-08-12T14:46:21;31.90;99.90
19037;DHT22;9651;49.138;8.900;2023-08-12T14:50:23;31.30;99.90
19037;DHT22;9651;49.138;8.900;2023-08-12T14:54:26;30.80;99.90
19037;DHT22;9651;49.138;8.900;2023-08-12T14:58:28;30.40;99.90
19037;DHT22;9651;49.138;8.900;2023-08-12T15:02:30;30.00;99.90
19037;DHT22;9651;49.138;8.900;2023-08-12T15:06:32;29.80;99.90
19037;DHT22;9651;49.138;8.900;2023-08-12T15:10:35;29.40;99.90
19037;DHT22;9651;49.138;8.900;2023-08-12T15:14:37;28.90;99.90
19037;DHT22;9651;49.138;8.900;2023-08-12T15:18:39;28.50;99.90
19037;DHT22;9651;49.138;8.900;2023-08-12T15:22:43;28.20;99.90
19037;DHT22;9651;49.138;8.900;2023-08-12T15:26:46;27.80;99.90
19037;DHT22;9651;49.138;8.900;2023-08-12T15:30:48;27.50;99.90
19037;DHT22;9651;49.138;8.900;2023-08-12T15:34:50;27.10;99.90
19037;DHT22;9651;49.138;8.900;2023-08-12T15:38:52;26.80;99.90
19037;DHT22;9651;49.138;8.900;2023-08-12T15:42:55;26.50;99.90
19037;DHT22;9651;49.138;8.900;2023-08-12T15:46:57;26.20;99.90
19037;DHT22;9651;49.138;8.900;2023-08-12T15:50:59;26.10;99.90
19037;DHT22;9651;49.138;8.900;2023-08-12T15:55:01;25.80;99.90
19037;DHT22;9651;49.138;8.900;2023-08-12T15:59:04;25.50;99.90
19037;DHT22;9651;49.138;8.900;2023-08-12T16:03:06;25.30;99.90
19037;DHT22;9651;49.138;8.900;2023-08-12T16:07:09;25.00;99.90
19037;DHT22;9651;49.138;8.900;2023-08-12T16:11:11;24.90;99.90
19037;DHT22;9651;49.138;8.900;2023-08-12T16:15:15;24.90;99.90
19037;DHT22;9651;49.138;8.900;2023-08-12T16:19:16;24.90;99.90
19037;DHT22;9651;49.138;8.900;2023-08-12T16:23:18;24.80;99.90
19037;DHT22;9651;49.138;8.900;2023-08-12T16:27:20;24.50;99.90
19037;DHT22;9651;49.138;8.900;2023-08-12T16:31:23;24.40;99.90
19037;DHT22;9651;49.138;8.900;2023-08-12T16:35:25;24.40;99.90
19037;DHT22;9651;49.138;8.900;2023-08-12T16:39:27;24.30;99.90
19037;DHT22;9651;49.138;8.900;2023-08-12T16:43:29;24.30;99.90
19037;DHT22;9651;49.138;8.900;2023-08-12T16:47:32;24.20;99.90
19037;DHT22;9651;49.138;8.900;2023-08-12T16:51:34;24.20;99.90
19037;DHT22;9651;49.138;8.900;2023-08-12T16:55:36;24.20;99.90
19037;DHT22;9651;49.138;8.900;2023-08-12T16:59:38;24.20;99.90
19037;DHT22;9651;49.138;8.900;2023-08-12T17:03:41;24.30;99.90
19037;DHT22;9651;49.138;8.900;2023-08-12T17:07:43;24.50;99.90
19037;DHT22;9651;49.138;8.900;2023-08-12T17:11:45;24.70;99.90
19037;DHT22;9651;49.138;8.900;2023-08-12T17:15:46;25.00;99.90
19037;DHT22;9651;49.138;8.900;2023-08-12T17:19:50;25.30;99.90
19037;DHT22;9651;49.138;8.900;2023-08-12T17:23:51;25.60;99.90
19037;DHT22;9651;49.138;8.900;2023-08-12T17:27:53;25.70;99.90
19037;DHT22;9651;49.138;8.900;2023-08-12T17:31:55;25.60;99.90
19037;DHT22;9651;49.138;8.900;2023-08-12T17:35:59;25.50;99.90
19037;DHT22;9651;49.138;8.900;2023-08-12T17:40:01;25.40;99.90
19037;DHT22;9651;49.138;8.900;2023-08-12T17:44:04;25.20;99.90
19037;DHT22;9651;49.138;8.900;2023-08-12T17:48:06;24.90;99.90
19037;DHT22;9651;49.138;8.900;2023-08-12T17:52:10;24.70;99.90
19037;DHT22;9651;49.138;8.900;2023-08-12T17:56:13;24.50;99.90
19037;DHT22;9651;49.138;8.900;2023-08-12T18:00:15;24.30;99.90
19037;DHT22;9651;49.138;8.900;2023-08-12T18:04:18;24.00;99.90
19037;DHT22;9651;49.138;8.900;2023-08-12T18:08:21;23.90;99.90
19037;DHT22;9651;49.138;8.900;2023-08-12T18:12:23;23.80;99.90
19037;DHT22;9651;49.138;8.900;2023-08-12T18:16:25;23.70;99.90
19037;DHT22;9651;49.138;8.900;2023-08-12T18:20:27;23.50;99.90
19037;DHT22;9651;49.138;8.900;2023-08-12T18:24:30;23.30;99.90
19037;DHT22;9651;49.138;8.900;2023-08-12T18:28:33;23.10;99.90
19037;DHT22;9651;49.138;8.900;2023-08-12T18:32:34;23.10;99.90
19037;DHT22;9651;49.138;8.900;2023-08-12T18:36:36;22.90;99.90
19037;DHT22;9651;49.138;8.900;2023-08-12T18:40:39;22.80;99.90
19037;DHT22;9651;49.138;8.900;2023-08-12T18:44:41;22.90;99.90
19037;DHT22;9651;49.138;8.900;2023-08-12T18:48:43;22.80;99.90
19037;DHT22;9651;49.138;8.900;2023-08-12T18:52:45;22.80;99.90
19037;DHT22;9651;49.138;8.900;2023-08-12T18:56:48;22.70;99.90
19037;DHT22;9651;49.138;8.900;2023-08-12T19:00:50;22.70;99.90
19037;DHT22;9651;49.138;8.900;2023-08-12T19:04:52;22.70;99.90
19037;DHT22;9651;49.138;8.900;2023-08-12T19:08:54;22.60;99.90
19037;DHT22;9651;49.138;8.900;2023-08-12T19:12:57;22.50;99.90
19037;DHT22;9651;49.138;8.900;2023-08-12T19:16:59;22.50;99.90
19037;DHT22;9651;49.138;8.900;2023-08-12T19:21:01;22.40;99.90
19037;DHT22;9651;49.138;8.900;2023-08-12T19:25:04;22.30;99.90
19037;DHT22;9651;49.138;8.900;2023-08-12T19:29:07;22.30;99.90
19037;DHT22;9651;49.138;8.900;2023-08-12T19:33:09;22.30;99.90
19037;DHT22;9651;49.138;8.900;2023-08-12T19:37:10;22.30;99.90
19037;DHT22;9651;49.138;8.900;2023-08-12T19:41:12;22.20;99.90
19037;DHT22;9651;49.138;8.900;2023-08-12T19:45:16;22.20;99.90
19037;DHT22;9651;49.138;8.900;2023-08-12T19:49:17;22.10;99.90
19037;DHT22;9651;49.138;8.900;2023-08-12T19:53:19;22.00;99.90
19037;DHT22;9651;49.138;8.900;2023-08-12T19:57:21;21.90;99.90
19037;DHT22;9651;49.138;8.900;2023-08-12T20:01:26;21.80;99.90
19037;DHT22;9651;49.138;8.900;2023-08-12T20:05:28;21.70;99.90
19037;DHT22;9651;49.138;8.900;2023-08-12T20:09:31;21.60;99.90
19037;DHT22;9651;49.138;8.900;2023-08-12T20:13:33;21.70;99.90
19037;DHT22;9651;49.138;8.900;2023-08-12T20:17:37;21.70;99.90
19037;DHT22;9651;49.138;8.900;2023-08-12T20:21:39;21.60;99.90
19037;DHT22;9651;49.138;8.900;2023-08-12T20:25:41;21.50;99.90
19037;DHT22;9651;49.138;8.900;2023-08-12T20:29:43;21.40;99.90
19037;DHT22;9651;49.138;8.900;2023-08-12T20:33:47;21.40;99.90
19037;DHT22;9651;49.138;8.900;2023-08-12T20:37:49;21.50;99.90
19037;DHT22;9651;49.138;8.900;2023-08-12T20:41:52;21.60;99.90
19037;DHT22;9651;49.138;8.900;2023-08-12T20:45:54;21.70;99.90
19037;DHT22;9651;49.138;8.900;2023-08-12T20:49:57;21.70;99.90
19037;DHT22;9651;49.138;8.900;2023-08-12T20:53:59;21.80;99.90
19037;DHT22;9651;49.138;8.900;2023-08-12T20:58:01;21.80;99.90
19037;DHT22;9651;49.138;8.900;2023-08-12T21:02:03;21.90;99.90
19037;DHT22;9651;49.138;8.900;2023-08-12T21:06:09;21.90;99.90
19037;DHT22;9651;49.138;8.900;2023-08-12T21:10:11;21.90;99.90
19037;DHT22;9651;49.138;8.900;2023-08-12T21:14:13;21.80;99.90
19037;DHT22;9651;49.138;8.900;2023-08-12T21:18:15;21.80;99.90
19037;DHT22;9651;49.138;8.900;2023-08-12T21:22:18;21.80;99.90
19037;DHT22;9651;49.138;8.900;2023-08-12T21:26:20;21.80;99.90
19037;DHT22;9651;49.138;8.900;2023-08-12T21:30:22;21.80;99.90
19037;DHT22;9651;49.138;8.900;2023-08-12T21:34:24;21.80;99.90
19037;DHT22;9651;49.138;8.900;2023-08-12T21:38:27;21.80;99.90
19037;DHT22;9651;49.138;8.900;2023-08-12T21:42:29;21.80;99.90
19037;DHT22;9651;49.138;8.900;2023-08-12T21:46:31;21.80;99.90
19037;DHT22;9651;49.138;8.900;2023-08-12T21:50:33;21.80;99.90
19037;DHT22;9651;49.138;8.900;2023-08-12T21:54:36;21.80;99.90
19037;DHT22;9651;49.138;8.900;2023-08-12T21:58:38;21.80;99.90
19037;DHT22;9651;49.138;8.900;2023-08-12T22:02:40;21.70;99.90
19037;DHT22;9651;49.138;8.900;2023-08-12T22:06:42;21.60;99.90
19037;DHT22;9651;49.138;8.900;2023-08-12T22:10:45;21.60;99.90
19037;DHT22;9651;49.138;8.900;2023-08-12T22:14:47;21.50;99.90
19037;DHT22;9651;49.138;8.900;2023-08-12T22:18:49;21.40;99.90
19037;DHT22;9651;49.138;8.900;2023-08-12T22:22:51;21.30;99.90
19037;DHT22;9651;49.138;8.900;2023-08-12T22:26:54;21.20;99.90
19037;DHT22;9651;49.138;8.900;2023-08-12T22:30:56;21.00;99.90
19037;DHT22;9651;49.138;8.900;2023-08-12T22:34:58;21.00;99.90
19037;DHT22;9651;49.138;8.900;2023-08-12T22:39:00;20.90;99.90
19037;DHT22;9651;49.138;8.900;2023-08-12T22:43:03;20.80;99.90
19037;DHT22;9651;49.138;8.900;2023-08-12T22:47:05;20.70;99.90
19037;DHT22;9651;49.138;8.900;2023-08-12T22:51:07;20.70;99.90
19037;DHT22;9651;49.138;8.900;2023-08-12T22:55:09;20.70;99.90
19037;DHT22;9651;49.138;8.900;2023-08-12T22:59:13;20.60;99.90
19037;DHT22;9651;49.138;8.900;2023-08-12T23:03:14;20.60;99.90
19037;DHT22;9651;49.138;8.900;2023-08-12T23:07:16;20.50;99.90
19037;DHT22;9651;49.138;8.900;2023-08-12T23:11:18;20.40;99.90
19037;DHT22;9651;49.138;8.900;2023-08-12T23:15:21;20.40;99.90
19037;DHT22;9651;49.138;8.900;2023-08-12T23:19:23;20.30;99.90
19037;DHT22;9651;49.138;8.900;2023-08-12T23:23:25;20.30;99.90
19037;DHT22;9651;49.138;8.900;2023-08-12T23:27:27;20.30;99.90
19037;DHT22;9651;49.138;8.900;2023-08-12T23:31:30;20.20;99.90
19037;DHT22;9651;49.138;8.900;2023-08-12T23:35:32;20.20;99.90
19037;DHT22;9651;49.138;8.900;2023-08-12T23:39:34;20.20;99.90
19037;DHT22;9651;49.138;8.900;2023-08-12T23:43:36;20.20;99.90
19037;DHT22;9651;49.138;8.900;2023-08-12T23:47:39;20.10;99.90
19037;DHT22;9651;49.138;8.900;2023-08-12T23:51:41;20.10;99.90
19037;DHT22;9651;49.138;8.900;2023-08-12T23:55:43;20.00;99.90
19037;DHT22;9651;49.138;8.900;2023-08-12T23:59:45;20.00;99.90
